createdAt,value
2023-02-07T00:00:25.230Z,-5.29
2023-02-07T00:01:29.093Z,-5.35
2023-02-07T00:02:31.817Z,-5.38
2023-02-07T00:03:34.426Z,-5.29
2023-02-07T00:04:36.985Z,-5.22
2023-02-07T00:05:39.977Z,-5.18
2023-02-07T00:06:43.132Z,-5.16
2023-02-07T00:07:45.776Z,-5.26
2023-02-07T00:08:49.500Z,-5.27
2023-02-07T00:09:52.223Z,-5.25
2023-02-07T00:10:54.917Z,-5.18
2023-02-07T00:11:57.468Z,-5.20
2023-02-07T00:13:00.542Z,-5.22
2023-02-07T00:14:03.104Z,-5.30
2023-02-07T00:15:06.629Z,-5.33
2023-02-07T00:16:09.822Z,-5.31
2023-02-07T00:17:12.514Z,-5.30
2023-02-07T00:18:15.349Z,-5.23
2023-02-07T00:19:17.919Z,-5.37
2023-02-07T00:20:21.461Z,-5.34
2023-02-07T00:21:25.956Z,-5.27
2023-02-07T00:22:28.595Z,-5.24
2023-02-07T00:23:31.502Z,-5.25
2023-02-07T00:24:34.003Z,-5.26
2023-02-07T00:25:36.914Z,-5.35
2023-02-07T00:26:40.203Z,-5.37
2023-02-07T00:27:42.971Z,-5.34
2023-02-07T00:28:46.219Z,-5.47
2023-02-07T00:29:49.190Z,-5.46
2023-02-07T00:30:52.356Z,-5.41
2023-02-07T00:31:54.931Z,-5.43
2023-02-07T00:32:57.582Z,-5.53
2023-02-07T00:34:02.544Z,-5.49
2023-02-07T00:35:07.025Z,-5.48
2023-02-07T00:36:13.476Z,-5.45
2023-02-07T00:37:16.958Z,-5.49
2023-02-07T00:38:21.374Z,-5.44
2023-02-07T00:39:24.581Z,-5.41
2023-02-07T00:40:28.248Z,-5.44
2023-02-07T00:41:31.282Z,-5.45
2023-02-07T00:42:35.741Z,-5.44
2023-02-07T00:43:38.287Z,-5.43
2023-02-07T00:44:41.621Z,-5.43
2023-02-07T00:45:44.543Z,-5.60
2023-02-07T00:46:47.767Z,-5.61
2023-02-07T00:47:50.725Z,-5.53
2023-02-07T00:48:55.055Z,-5.57
2023-02-07T00:49:57.574Z,-5.55
2023-02-07T00:51:01.257Z,-5.62
2023-02-07T00:52:04.341Z,-5.61
2023-02-07T00:53:07.003Z,-5.62
2023-02-07T00:54:09.561Z,-5.62
2023-02-07T00:55:12.116Z,-5.59
2023-02-07T00:56:16.248Z,-5.61
2023-02-07T00:57:19.045Z,-5.62
2023-02-07T00:58:22.442Z,-5.60
2023-02-07T00:59:25.053Z,-5.62
2023-02-07T01:00:27.753Z,-5.64
2023-02-07T01:01:31.382Z,-5.63
2023-02-07T01:02:34.410Z,-5.63
2023-02-07T01:03:37.229Z,-5.57
2023-02-07T01:04:40.205Z,-5.62
2023-02-07T01:05:43.364Z,-5.56
2023-02-07T01:06:45.990Z,-5.69
2023-02-07T01:07:48.628Z,-5.61
2023-02-07T01:08:51.359Z,-5.72
2023-02-07T01:09:53.912Z,-5.76
2023-02-07T01:10:56.749Z,-5.76
2023-02-07T01:11:59.727Z,-5.86
2023-02-07T01:13:02.508Z,-5.87
2023-02-07T01:14:05.068Z,-5.83
2023-02-07T01:15:08.137Z,-5.82
2023-02-07T01:16:32.256Z,-5.78
2023-02-07T01:17:34.929Z,-5.78
2023-02-07T01:18:37.390Z,-5.79
2023-02-07T01:19:40.220Z,-5.74
2023-02-07T01:20:42.936Z,-5.74
2023-02-07T01:21:45.758Z,-5.78
2023-02-07T01:22:48.353Z,-5.87
2023-02-07T01:23:51.129Z,-5.71
2023-02-07T01:24:57.089Z,-5.74
2023-02-07T01:25:59.759Z,-5.65
2023-02-07T01:27:02.958Z,-5.69
2023-02-07T01:28:06.988Z,-5.64
2023-02-07T01:29:14.600Z,-5.65
2023-02-07T01:30:17.351Z,-5.60
2023-02-07T01:31:22.275Z,-5.55
2023-02-07T01:32:25.095Z,-5.47
2023-02-07T01:33:27.920Z,-5.52
2023-02-07T01:34:30.544Z,-5.47
2023-02-07T01:35:33.348Z,-5.42
2023-02-07T01:36:36.338Z,-5.47
2023-02-07T01:37:39.023Z,-5.38
2023-02-07T01:38:43.498Z,-5.40
2023-02-07T01:39:47.559Z,-5.38
2023-02-07T01:40:50.413Z,-5.28
2023-02-07T01:41:53.097Z,-5.39
2023-02-07T01:42:58.167Z,-5.34
2023-02-07T01:44:26.489Z,-5.26
2023-02-07T01:45:38.938Z,-5.28
2023-02-07T01:46:43.733Z,-5.25
2023-02-07T01:47:46.324Z,-5.21
2023-02-07T01:48:49.895Z,-5.19
2023-02-07T01:49:55.384Z,-5.18
2023-02-07T01:51:04.312Z,-5.19
2023-02-07T01:52:16.843Z,-5.20
2023-02-07T01:53:22.749Z,-5.16
2023-02-07T01:54:32.593Z,-5.15
2023-02-07T01:55:38.084Z,-5.27
2023-02-07T01:56:44.704Z,-5.26
2023-02-07T01:57:48.131Z,-5.30
2023-02-07T01:58:51.055Z,-5.25
2023-02-07T01:59:56.100Z,-5.34
2023-02-07T02:01:00.983Z,-5.28
2023-02-07T02:02:05.226Z,-5.23
2023-02-07T02:03:07.957Z,-5.29
2023-02-07T02:04:10.695Z,-5.28
2023-02-07T02:05:14.662Z,-5.35
2023-02-07T02:06:18.196Z,-5.34
2023-02-07T02:07:21.963Z,-5.34
2023-02-07T02:08:29.726Z,-5.35
2023-02-07T02:09:32.551Z,-5.33
2023-02-07T02:10:59.222Z,-5.35
2023-02-07T02:12:13.692Z,-5.42
2023-02-07T02:13:37.631Z,-5.35
2023-02-07T02:15:10.003Z,-5.39
2023-02-07T02:16:51.968Z,-5.68
2023-02-07T02:18:09.704Z,-5.72
2023-02-07T02:19:30.750Z,-5.71
2023-02-07T02:21:07.095Z,-5.67
2023-02-07T02:22:28.046Z,-5.53
2023-02-07T02:24:08.545Z,-5.51
2023-02-07T02:25:16.852Z,-5.47
2023-02-07T02:26:56.499Z,-5.41
2023-02-07T02:28:28.084Z,-5.43
2023-02-07T02:29:39.879Z,-5.48
2023-02-07T02:31:14.661Z,-5.57
2023-02-07T02:32:41.985Z,-5.48
2023-02-07T02:34:09.398Z,-5.47
2023-02-07T02:35:30.450Z,-5.52
2023-02-07T02:36:47.445Z,-5.46
2023-02-07T02:38:17.255Z,-5.43
2023-02-07T02:40:14.481Z,-5.56
2023-02-07T02:41:24.290Z,-5.53
2023-02-07T02:42:44.579Z,-5.47
2023-02-07T02:43:59.000Z,-5.57
2023-02-07T02:45:10.648Z,-5.48
2023-02-07T02:46:21.606Z,-5.46
2023-02-07T02:47:26.525Z,-5.47
2023-02-07T02:48:31.489Z,-5.43
2023-02-07T02:49:34.896Z,-5.37
2023-02-07T02:50:37.845Z,-5.38
2023-02-07T02:51:40.947Z,-5.40
2023-02-07T02:52:50.532Z,-5.41
2023-02-07T02:54:00.239Z,-5.46
2023-02-07T02:55:11.250Z,-5.41
2023-02-07T02:56:26.323Z,-5.44
2023-02-07T02:57:49.677Z,-5.38
2023-02-07T02:59:25.006Z,-5.37
2023-02-07T03:00:48.755Z,-5.38
2023-02-07T03:02:06.952Z,-5.35
2023-02-07T03:04:02.232Z,-5.42
2023-02-07T03:05:34.928Z,-5.38
2023-02-07T03:06:37.522Z,-5.35
2023-02-07T03:08:16.557Z,-5.37
2023-02-07T03:09:25.272Z,-5.37
2023-02-07T03:10:43.316Z,-5.43
2023-02-07T03:11:56.573Z,-5.41
2023-02-07T03:13:06.874Z,-5.37
2023-02-07T03:14:19.365Z,-5.37
2023-02-07T03:15:40.981Z,-5.41
2023-02-07T03:16:49.443Z,-5.42
2023-02-07T03:18:00.200Z,-5.39
2023-02-07T03:19:14.901Z,-5.40
2023-02-07T03:20:20.360Z,-5.39
2023-02-07T03:21:39.084Z,-5.36
2023-02-07T03:22:44.101Z,-5.37
2023-02-07T03:23:49.380Z,-5.36
2023-02-07T03:24:55.371Z,-5.31
2023-02-07T03:26:02.396Z,-5.38
2023-02-07T03:27:09.981Z,-5.47
2023-02-07T03:28:15.225Z,-5.43
2023-02-07T03:29:21.199Z,-5.44
2023-02-07T03:30:29.821Z,-5.40
2023-02-07T03:31:34.962Z,-5.40
2023-02-07T03:32:40.142Z,-5.36
2023-02-07T03:33:47.114Z,-5.34
2023-02-07T03:35:06.870Z,-5.39
2023-02-07T03:36:22.340Z,-5.36
2023-02-07T03:37:48.328Z,-5.38
2023-02-07T03:38:51.501Z,-5.40
2023-02-07T03:39:54.135Z,-5.35
2023-02-07T03:41:01.992Z,-5.35
2023-02-07T03:42:10.534Z,-5.26
2023-02-07T03:43:21.003Z,-5.25
2023-02-07T03:44:26.429Z,-5.23
2023-02-07T03:45:28.984Z,-5.17
2023-02-07T03:46:38.329Z,-5.17
2023-02-07T03:47:41.046Z,-5.23
2023-02-07T03:48:44.287Z,-5.14
2023-02-07T03:49:46.982Z,-5.15
2023-02-07T03:50:52.185Z,-5.18
2023-02-07T03:51:55.117Z,-5.13
2023-02-07T03:52:57.747Z,-5.24
2023-02-07T03:54:00.339Z,-5.27
2023-02-07T03:55:03.252Z,-5.28
2023-02-07T03:56:06.577Z,-5.25
2023-02-07T03:57:10.170Z,-5.23
2023-02-07T03:58:12.991Z,-5.23
2023-02-07T03:59:15.724Z,-5.20
2023-02-07T04:00:18.664Z,-5.23
2023-02-07T04:01:21.542Z,-5.26
2023-02-07T04:02:24.258Z,-5.32
2023-02-07T04:03:27.165Z,-5.21
2023-02-07T04:04:30.420Z,-5.14
2023-02-07T04:05:33.319Z,-5.24
2023-02-07T04:06:36.334Z,-5.24
2023-02-07T04:07:39.231Z,-5.21
2023-02-07T04:08:42.023Z,-5.22
2023-02-07T04:09:44.648Z,-5.21
2023-02-07T04:11:00.060Z,-5.21
2023-02-07T04:12:02.699Z,-5.26
2023-02-07T04:13:05.350Z,-5.34
2023-02-07T04:14:08.204Z,-5.31
2023-02-07T04:15:13.331Z,-5.29
2023-02-07T04:16:16.287Z,-5.25
2023-02-07T04:17:18.933Z,-5.29
2023-02-07T04:18:21.728Z,-5.28
2023-02-07T04:19:24.482Z,-5.29
2023-02-07T04:20:27.272Z,-5.30
2023-02-07T04:21:30.019Z,-5.34
2023-02-07T04:22:32.945Z,-5.34
2023-02-07T04:23:36.428Z,-5.32
2023-02-07T04:24:43.165Z,-5.29
2023-02-07T04:25:45.760Z,-5.41
2023-02-07T04:26:50.520Z,-5.51
2023-02-07T04:27:53.284Z,-5.62
2023-02-07T04:28:56.160Z,-5.51
2023-02-07T04:29:58.875Z,-5.63
2023-02-07T04:31:01.556Z,-5.67
2023-02-07T04:32:04.469Z,-5.60
2023-02-07T04:33:07.246Z,-5.65
2023-02-07T04:34:10.218Z,-5.78
2023-02-07T04:35:12.765Z,-5.71
2023-02-07T04:36:15.861Z,-5.84
2023-02-07T04:37:18.363Z,-5.87
2023-02-07T04:38:21.506Z,-5.90
2023-02-07T04:39:24.381Z,-5.99
2023-02-07T04:40:27.354Z,-5.90
2023-02-07T04:41:30.059Z,-5.90
2023-02-07T04:42:33.124Z,-5.83
2023-02-07T04:43:37.479Z,-5.87
2023-02-07T04:44:40.065Z,-5.98
2023-02-07T04:45:42.707Z,-6.03
2023-02-07T04:46:45.288Z,-6.00
2023-02-07T04:47:47.873Z,-6.08
2023-02-07T04:48:50.392Z,-6.02
2023-02-07T04:49:53.078Z,-5.93
2023-02-07T04:50:55.791Z,-5.91
2023-02-07T04:51:58.607Z,-5.91
2023-02-07T04:53:01.169Z,-5.94
2023-02-07T04:54:04.138Z,-5.94
2023-02-07T04:55:07.461Z,-5.88
2023-02-07T04:56:10.476Z,-5.96
2023-02-07T04:57:13.057Z,-5.89
2023-02-07T04:58:16.412Z,-5.92
2023-02-07T04:59:19.036Z,-5.91
2023-02-07T05:00:22.252Z,-6.00
2023-02-07T05:01:24.880Z,-6.08
2023-02-07T05:02:28.122Z,-6.04
2023-02-07T05:03:30.719Z,-6.03
2023-02-07T05:04:33.410Z,-6.05
2023-02-07T05:05:39.831Z,-6.08
2023-02-07T05:06:43.411Z,-6.11
2023-02-07T05:07:47.132Z,-6.11
2023-02-07T05:08:50.098Z,-6.04
2023-02-07T05:09:57.997Z,-6.12
2023-02-07T05:11:00.662Z,-6.09
2023-02-07T05:12:03.669Z,-6.16
2023-02-07T05:13:06.945Z,-6.22
2023-02-07T05:14:09.458Z,-6.23
2023-02-07T05:15:12.076Z,-6.25
2023-02-07T05:16:14.888Z,-6.17
2023-02-07T05:17:17.599Z,-6.20
2023-02-07T05:18:21.634Z,-6.20
2023-02-07T05:19:24.363Z,-6.17
2023-02-07T05:20:27.359Z,-6.16
2023-02-07T05:21:30.058Z,-6.18
2023-02-07T05:22:32.849Z,-6.27
2023-02-07T05:23:35.566Z,-6.21
2023-02-07T05:24:38.093Z,-6.23
2023-02-07T05:25:43.900Z,-6.12
2023-02-07T05:26:46.700Z,-6.06
2023-02-07T05:27:49.205Z,-6.06
2023-02-07T05:28:52.136Z,-6.09
2023-02-07T05:29:54.902Z,-6.12
2023-02-07T05:30:57.598Z,-6.14
2023-02-07T05:32:18.741Z,-6.11
2023-02-07T05:33:21.188Z,-5.67
2023-02-07T05:34:24.462Z,-5.64
2023-02-07T05:35:27.002Z,-5.54
2023-02-07T05:36:29.553Z,-5.51
2023-02-07T05:37:32.256Z,-5.32
2023-02-07T05:38:35.026Z,-5.20
2023-02-07T05:39:37.777Z,-5.16
2023-02-07T05:40:42.179Z,-5.06
2023-02-07T05:41:44.754Z,-5.12
2023-02-07T05:42:47.311Z,-5.11
2023-02-07T05:43:49.838Z,-5.05
2023-02-07T05:44:52.492Z,-4.87
2023-02-07T05:45:55.117Z,-4.88
2023-02-07T05:46:57.825Z,-4.92
2023-02-07T05:48:00.605Z,-4.93
2023-02-07T05:49:03.658Z,-4.83
2023-02-07T05:50:06.646Z,-4.79
2023-02-07T05:51:11.532Z,-4.74
2023-02-07T05:52:14.196Z,-4.71
2023-02-07T05:53:17.183Z,-4.66
2023-02-07T05:54:19.710Z,-4.63
2023-02-07T05:55:22.267Z,-4.64
2023-02-07T05:56:24.914Z,-4.64
2023-02-07T05:57:28.106Z,-4.50
2023-02-07T05:58:30.980Z,-4.54
2023-02-07T05:59:33.775Z,-4.54
2023-02-07T06:00:37.106Z,-4.56
2023-02-07T06:01:40.309Z,-4.51
2023-02-07T06:02:44.852Z,-4.49
2023-02-07T06:03:47.301Z,-4.45
2023-02-07T06:04:49.860Z,-4.57
2023-02-07T06:05:52.457Z,-4.59
2023-02-07T06:06:55.066Z,-4.59
2023-02-07T06:07:58.468Z,-4.58
2023-02-07T06:09:01.422Z,-4.62
2023-02-07T06:10:05.717Z,-4.62
2023-02-07T06:11:09.769Z,-4.61
2023-02-07T06:12:12.378Z,-4.58
2023-02-07T06:13:15.016Z,-4.60
2023-02-07T06:14:17.781Z,-4.65
2023-02-07T06:15:20.337Z,-4.61
2023-02-07T06:16:23.056Z,-4.62
2023-02-07T06:17:26.084Z,-4.59
2023-02-07T06:18:30.086Z,-4.58
2023-02-07T06:19:33.517Z,-4.60
2023-02-07T06:20:36.142Z,-4.64
2023-02-07T06:21:46.511Z,-4.58
2023-02-07T06:22:49.458Z,-4.60
2023-02-07T06:23:52.082Z,-4.58
2023-02-07T06:24:54.800Z,-4.48
2023-02-07T06:25:57.376Z,-4.51
2023-02-07T06:27:00.195Z,-4.47
2023-02-07T06:28:03.416Z,-4.41
2023-02-07T06:29:06.147Z,-4.42
2023-02-07T06:30:10.663Z,-4.36
2023-02-07T06:31:14.326Z,-4.33
2023-02-07T06:32:17.167Z,-4.30
2023-02-07T06:33:19.921Z,-4.29
2023-02-07T06:34:25.583Z,-4.19
2023-02-07T06:35:29.922Z,-4.26
2023-02-07T06:36:32.463Z,-4.20
2023-02-07T06:37:35.440Z,-4.16
2023-02-07T06:38:38.178Z,-4.15
2023-02-07T06:39:40.770Z,-4.17
2023-02-07T06:40:44.286Z,-4.10
2023-02-07T06:41:47.093Z,-4.11
2023-02-07T06:42:49.848Z,-4.10
2023-02-07T06:43:52.885Z,-3.99
2023-02-07T06:44:55.461Z,-4.03
2023-02-07T06:45:58.174Z,-3.99
2023-02-07T06:47:00.573Z,-3.94
2023-02-07T06:48:03.062Z,-3.93
2023-02-07T06:49:05.421Z,-3.88
2023-02-07T06:50:09.243Z,-3.85
2023-02-07T06:51:13.696Z,-3.84
2023-02-07T06:52:16.336Z,-3.76
2023-02-07T06:53:18.666Z,-3.73
2023-02-07T06:54:21.165Z,-3.75
2023-02-07T06:55:23.550Z,-3.71
2023-02-07T06:56:25.985Z,-3.64
2023-02-07T06:57:28.529Z,-3.67
2023-02-07T06:58:31.059Z,-3.66
2023-02-07T06:59:33.486Z,-3.70
2023-02-07T07:00:36.242Z,-3.69
2023-02-07T07:01:38.652Z,-3.70
2023-02-07T07:02:41.309Z,-3.63
2023-02-07T07:03:44.138Z,-3.61
2023-02-07T07:04:46.441Z,-3.59
2023-02-07T07:05:48.894Z,-3.58
2023-02-07T07:06:51.541Z,-3.59
2023-02-07T07:07:54.120Z,-3.59
2023-02-07T07:08:58.180Z,-3.61
2023-02-07T07:10:00.616Z,-3.56
2023-02-07T07:11:03.067Z,-3.48
2023-02-07T07:12:07.310Z,-3.49
2023-02-07T07:13:11.127Z,-3.49
2023-02-07T07:14:13.984Z,-3.50
2023-02-07T07:15:16.507Z,-3.52
2023-02-07T07:16:18.938Z,-3.47
2023-02-07T07:17:21.247Z,-3.47
2023-02-07T07:18:24.044Z,-3.30
2023-02-07T07:19:26.573Z,-3.33
2023-02-07T07:20:29.243Z,-3.25
2023-02-07T07:21:38.694Z,-3.15
2023-02-07T07:22:41.705Z,-3.04
2023-02-07T07:23:44.271Z,-2.98
2023-02-07T07:24:47.278Z,-2.99
2023-02-07T07:25:49.819Z,-2.87
2023-02-07T07:26:52.307Z,-2.72
2023-02-07T07:27:54.760Z,-2.76
2023-02-07T07:29:00.320Z,-2.81
2023-02-07T07:30:10.399Z,-2.45
2023-02-07T07:31:14.031Z,-2.27
2023-02-07T07:32:32.125Z,-1.70
2023-02-07T07:33:36.494Z,-1.26
2023-02-07T07:34:39.476Z,-1.17
2023-02-07T07:35:44.243Z,-1.17
2023-02-07T07:36:46.617Z,-1.27
2023-02-07T07:37:49.034Z,-1.09
2023-02-07T07:38:52.393Z,-0.46
2023-02-07T07:39:56.644Z,-0.45
2023-02-07T07:40:59.682Z,-0.51
2023-02-07T07:42:03.038Z,-0.53
2023-02-07T07:43:26.916Z,-0.43
2023-02-07T07:44:30.010Z,-0.29
2023-02-07T07:45:32.384Z,-0.34
2023-02-07T07:46:34.900Z,-0.12
2023-02-07T07:47:39.943Z,0.09
2023-02-07T07:48:46.812Z,-0.11
2023-02-07T07:49:50.478Z,0.16
2023-02-07T07:50:53.734Z,0.22
2023-02-07T07:51:56.298Z,-0.05
2023-02-07T07:52:58.940Z,0.01
2023-02-07T07:54:01.717Z,-0.09
2023-02-07T07:55:04.268Z,-0.13
2023-02-07T07:56:07.073Z,-0.04
2023-02-07T07:57:09.706Z,-0.19
2023-02-07T07:58:12.241Z,-0.45
2023-02-07T07:59:23.671Z,0.08
2023-02-07T08:00:26.558Z,0.21
2023-02-07T08:01:29.045Z,0.35
2023-02-07T08:02:31.875Z,0.23
2023-02-07T08:03:35.036Z,-0.02
2023-02-07T08:04:37.581Z,0.08
2023-02-07T08:05:40.373Z,-0.08
2023-02-07T08:06:42.802Z,0.13
2023-02-07T08:07:45.212Z,0.11
2023-02-07T08:08:47.790Z,1.01
2023-02-07T08:09:50.230Z,1.69
2023-02-07T08:10:52.640Z,2.30
2023-02-07T08:11:55.088Z,2.30
2023-02-07T08:12:58.229Z,2.68
2023-02-07T08:14:00.620Z,2.69
2023-02-07T08:15:03.064Z,2.53
2023-02-07T08:16:11.280Z,2.74
2023-02-07T08:17:13.669Z,2.16
2023-02-07T08:18:16.086Z,2.48
2023-02-07T08:19:18.855Z,2.37
2023-02-07T08:20:21.234Z,1.76
2023-02-07T08:21:26.160Z,1.51
2023-02-07T08:22:28.781Z,1.79
2023-02-07T08:23:31.325Z,1.93
2023-02-07T08:24:34.727Z,2.07
2023-02-07T08:25:37.015Z,1.73
2023-02-07T08:26:39.367Z,1.55
2023-02-07T08:27:41.873Z,1.22
2023-02-07T08:28:44.263Z,1.07
2023-02-07T08:29:46.716Z,0.99
2023-02-07T08:30:49.106Z,1.36
2023-02-07T08:31:51.661Z,1.61
2023-02-07T08:32:55.805Z,1.32
2023-02-07T08:33:58.418Z,1.04
2023-02-07T08:35:00.932Z,1.10
2023-02-07T08:37:45.023Z,1.59
2023-02-07T08:38:47.501Z,1.41
2023-02-07T08:39:53.076Z,2.05
2023-02-07T08:40:55.840Z,2.00
2023-02-07T08:42:11.715Z,2.29
2023-02-07T08:43:15.344Z,2.02
2023-02-07T08:44:17.951Z,2.63
2023-02-07T08:45:24.136Z,2.06
2023-02-07T08:46:33.849Z,2.00
2023-02-07T08:47:36.540Z,1.95
2023-02-07T08:48:46.137Z,2.72
2023-02-07T08:50:08.518Z,2.80
2023-02-07T08:51:33.447Z,2.59
2023-02-07T08:52:36.328Z,2.66
2023-02-07T08:54:04.161Z,2.99
2023-02-07T08:55:09.024Z,2.86
2023-02-07T08:56:43.865Z,2.90
2023-02-07T08:58:25.681Z,3.24
2023-02-07T08:59:28.156Z,3.09
2023-02-07T09:00:31.008Z,2.98
2023-02-07T09:01:33.733Z,2.51
2023-02-07T09:02:36.460Z,2.67
2023-02-07T09:03:39.054Z,2.70
2023-02-07T09:04:43.437Z,2.92
2023-02-07T09:05:45.852Z,2.67
2023-02-07T09:06:48.403Z,2.53
2023-02-07T09:07:50.909Z,2.75
2023-02-07T09:08:54.642Z,2.35
2023-02-07T09:09:57.577Z,2.84
2023-02-07T09:10:59.988Z,2.45
2023-02-07T09:12:02.522Z,2.28
2023-02-07T09:13:05.282Z,2.32
2023-02-07T09:14:07.821Z,2.58
2023-02-07T09:15:10.883Z,2.23
2023-02-07T09:16:15.059Z,2.42
2023-02-07T09:17:17.242Z,2.43
2023-02-07T09:18:20.532Z,2.30
2023-02-07T09:19:25.420Z,2.38
2023-02-07T09:20:27.795Z,2.32
2023-02-07T09:21:31.705Z,2.42
2023-02-07T09:22:54.399Z,2.53
2023-02-07T09:23:56.798Z,3.04
2023-02-07T09:24:59.415Z,3.05
2023-02-07T09:26:04.450Z,2.79
2023-02-07T09:27:07.133Z,2.54
2023-02-07T09:28:10.052Z,2.83
2023-02-07T09:29:14.623Z,2.91
2023-02-07T09:30:17.735Z,2.79
2023-02-07T09:31:21.953Z,2.64
2023-02-07T09:32:24.397Z,2.40
2023-02-07T09:33:26.856Z,2.20
2023-02-07T09:34:29.348Z,2.05
2023-02-07T09:35:31.744Z,2.06
2023-02-07T09:36:35.715Z,2.09
2023-02-07T09:37:48.902Z,1.93
2023-02-07T09:38:53.280Z,1.86
2023-02-07T09:39:55.683Z,2.01
2023-02-07T09:40:59.508Z,1.91
2023-02-07T09:42:07.936Z,2.08
2023-02-07T09:43:36.482Z,2.29
2023-02-07T09:45:08.824Z,2.38
2023-02-07T09:46:33.127Z,2.61
2023-02-07T09:47:40.883Z,2.71
2023-02-07T09:48:47.684Z,3.03
2023-02-07T09:50:18.259Z,2.98
2023-02-07T09:51:23.786Z,3.11
2023-02-07T09:52:34.024Z,3.22
2023-02-07T09:54:07.672Z,3.44
2023-02-07T09:55:25.677Z,3.42
2023-02-07T09:56:30.216Z,3.13
2023-02-07T09:57:41.702Z,3.72
2023-02-07T09:59:05.703Z,3.90
2023-02-07T10:00:19.744Z,4.14
2023-02-07T10:01:26.471Z,4.44
2023-02-07T10:02:41.620Z,4.50
2023-02-07T10:03:52.862Z,4.90
2023-02-07T10:05:07.275Z,5.47
2023-02-07T10:06:27.333Z,5.75
2023-02-07T10:07:30.940Z,5.77
2023-02-07T10:08:40.947Z,5.58
2023-02-07T10:09:45.690Z,6.12
2023-02-07T10:11:06.689Z,5.82
2023-02-07T10:12:15.275Z,5.65
2023-02-07T10:13:26.915Z,5.88
2023-02-07T10:15:01.310Z,5.71
2023-02-07T10:16:06.828Z,5.69
2023-02-07T10:17:34.272Z,5.86
2023-02-07T10:18:54.144Z,6.25
2023-02-07T10:20:27.406Z,7.09
2023-02-07T10:21:53.142Z,7.36
2023-02-07T10:23:17.914Z,7.36
2023-02-07T10:24:28.924Z,7.41
2023-02-07T10:26:03.570Z,7.63
2023-02-07T10:27:14.498Z,7.18
2023-02-07T10:28:16.949Z,6.80
2023-02-07T10:29:25.448Z,6.66
2023-02-07T10:30:32.127Z,6.71
2023-02-07T10:31:39.685Z,7.25
2023-02-07T10:32:43.747Z,7.68
2023-02-07T10:33:57.447Z,7.90
2023-02-07T10:35:03.709Z,7.73
2023-02-07T10:36:18.484Z,6.86
2023-02-07T10:37:29.775Z,7.25
2023-02-07T10:38:41.832Z,7.52
2023-02-07T10:39:50.168Z,7.81
2023-02-07T10:41:00.196Z,8.61
2023-02-07T10:42:03.240Z,8.23
2023-02-07T10:43:26.009Z,7.83
2023-02-07T10:44:31.207Z,8.07
2023-02-07T10:45:33.740Z,7.83
2023-02-07T10:46:38.057Z,8.13
2023-02-07T10:47:41.500Z,7.59
2023-02-07T10:48:44.453Z,7.29
2023-02-07T10:49:50.058Z,7.52
2023-02-07T10:50:52.538Z,7.53
2023-02-07T10:52:02.875Z,7.49
2023-02-07T10:53:05.530Z,7.80
2023-02-07T10:54:09.615Z,8.08
2023-02-07T10:55:17.440Z,8.40
2023-02-07T10:56:23.958Z,8.06
2023-02-07T10:57:28.410Z,7.84
2023-02-07T10:58:40.866Z,7.79
2023-02-07T10:59:47.518Z,8.02
2023-02-07T11:00:55.645Z,8.03
2023-02-07T11:01:58.444Z,8.25
2023-02-07T11:03:14.021Z,8.30
2023-02-07T11:04:43.976Z,7.42
2023-02-07T11:06:02.896Z,7.77
2023-02-07T11:07:10.620Z,7.66
2023-02-07T11:08:20.079Z,7.65
2023-02-07T11:09:24.747Z,7.98
2023-02-07T11:10:30.597Z,8.21
2023-02-07T11:11:35.512Z,7.61
2023-02-07T11:12:46.683Z,8.38
2023-02-07T11:13:51.865Z,8.76
2023-02-07T11:15:06.483Z,8.00
2023-02-07T11:16:10.190Z,7.79
2023-02-07T11:17:21.825Z,8.19
2023-02-07T11:18:45.814Z,8.63
2023-02-07T11:19:51.653Z,7.95
2023-02-07T11:20:56.472Z,8.61
2023-02-07T11:22:19.213Z,8.15
2023-02-07T11:23:22.956Z,8.24
2023-02-07T11:24:29.191Z,8.66
2023-02-07T11:25:37.413Z,8.48
2023-02-07T11:26:54.599Z,8.86
2023-02-07T11:27:57.872Z,9.22
2023-02-07T11:29:18.593Z,8.37
2023-02-07T11:30:24.922Z,8.26
2023-02-07T11:31:35.105Z,7.90
2023-02-07T11:32:38.679Z,8.46
2023-02-07T11:33:42.557Z,8.66
2023-02-07T11:34:53.074Z,7.80
2023-02-07T11:36:14.628Z,8.28
2023-02-07T11:37:17.058Z,8.34
2023-02-07T11:38:19.422Z,9.14
2023-02-07T11:39:24.111Z,8.85
2023-02-07T11:40:59.702Z,7.51
2023-02-07T11:42:02.806Z,7.15
2023-02-07T11:43:19.982Z,7.48
2023-02-07T11:44:25.498Z,7.55
2023-02-07T11:45:29.453Z,8.20
2023-02-07T11:46:44.962Z,8.83
2023-02-07T11:47:49.409Z,8.39
2023-02-07T11:48:56.631Z,8.46
2023-02-07T11:50:04.941Z,7.92
2023-02-07T11:51:10.548Z,7.93
2023-02-07T11:52:13.834Z,8.11
2023-02-07T11:53:24.714Z,7.91
2023-02-07T11:54:28.360Z,8.42
2023-02-07T11:55:39.732Z,8.49
2023-02-07T11:56:45.569Z,8.03
2023-02-07T11:57:48.782Z,7.94
2023-02-07T11:58:53.028Z,7.77
2023-02-07T12:00:06.815Z,7.48
2023-02-07T12:01:23.599Z,7.58
2023-02-07T12:02:28.689Z,8.35
2023-02-07T12:03:47.898Z,7.93
2023-02-07T12:04:52.805Z,7.79
2023-02-07T12:05:59.562Z,7.48
2023-02-07T12:07:11.960Z,8.11
2023-02-07T12:08:24.404Z,8.03
2023-02-07T12:09:45.983Z,8.24
2023-02-07T12:10:52.812Z,8.09
2023-02-07T12:11:57.549Z,8.47
2023-02-07T12:13:07.844Z,8.74
2023-02-07T12:14:30.637Z,8.71
2023-02-07T12:15:41.047Z,7.81
2023-02-07T12:16:52.517Z,7.99
2023-02-07T12:18:01.299Z,7.80
2023-02-07T12:19:23.005Z,9.21
2023-02-07T12:20:28.973Z,8.95
2023-02-07T12:21:41.375Z,9.17
2023-02-07T12:23:00.144Z,8.40
2023-02-07T12:24:35.893Z,8.56
2023-02-07T12:25:46.341Z,8.61
2023-02-07T12:26:51.603Z,8.12
2023-02-07T12:28:00.922Z,8.89
2023-02-07T12:29:25.326Z,8.84
2023-02-07T12:30:39.729Z,8.16
2023-02-07T12:31:59.283Z,8.36
2023-02-07T12:33:24.321Z,8.69
2023-02-07T12:34:34.429Z,8.53
2023-02-07T12:35:45.749Z,9.03
2023-02-07T12:37:32.998Z,8.17
2023-02-07T12:38:47.701Z,8.59
2023-02-07T12:39:53.983Z,8.74
2023-02-07T12:41:16.104Z,9.11
2023-02-07T12:42:25.382Z,9.57
2023-02-07T12:43:33.501Z,9.06
2023-02-07T12:44:47.424Z,8.24
2023-02-07T12:46:05.258Z,7.40
2023-02-07T12:47:45.279Z,6.81
2023-02-07T12:49:05.984Z,5.99
2023-02-07T12:50:23.364Z,6.06
2023-02-07T12:51:37.673Z,6.29
2023-02-07T12:52:53.595Z,6.04
2023-02-07T12:53:58.844Z,5.91
2023-02-07T12:55:25.672Z,5.92
2023-02-07T12:56:52.776Z,5.74
2023-02-07T12:58:32.396Z,5.42
2023-02-07T12:59:56.156Z,5.10
2023-02-07T13:01:12.016Z,5.33
2023-02-07T13:02:36.082Z,5.16
2023-02-07T13:03:46.313Z,4.89
2023-02-07T13:05:00.596Z,4.94
2023-02-07T13:06:14.301Z,4.79
2023-02-07T13:07:19.879Z,5.34
2023-02-07T13:08:37.466Z,5.33
2023-02-07T13:09:43.118Z,5.59
2023-02-07T13:11:08.354Z,5.44
2023-02-07T13:12:31.027Z,5.27
2023-02-07T13:13:39.690Z,4.94
2023-02-07T13:15:05.889Z,4.85
2023-02-07T13:16:12.820Z,4.73
2023-02-07T13:17:28.003Z,4.55
2023-02-07T13:18:58.183Z,4.22
2023-02-07T13:20:48.220Z,4.24
2023-02-07T13:22:07.161Z,4.02
2023-02-07T13:23:25.642Z,4.23
2023-02-07T13:24:30.214Z,3.96
2023-02-07T13:25:34.750Z,3.61
2023-02-07T13:26:37.255Z,3.61
2023-02-07T13:27:41.764Z,3.64
2023-02-07T13:28:58.620Z,3.55
2023-02-07T13:30:01.893Z,3.39
2023-02-07T13:31:06.934Z,3.42
2023-02-07T13:32:16.747Z,3.31
2023-02-07T13:33:38.258Z,3.45
2023-02-07T13:35:10.989Z,3.32
2023-02-07T13:36:37.735Z,3.24
2023-02-07T13:38:14.991Z,3.32
2023-02-07T13:39:41.377Z,3.10
2023-02-07T13:41:04.834Z,2.88
2023-02-07T13:42:07.650Z,2.79
2023-02-07T13:43:25.832Z,2.83
2023-02-07T13:44:28.167Z,2.83
2023-02-07T13:45:51.012Z,2.73
2023-02-07T13:47:02.757Z,2.79
2023-02-07T13:48:20.705Z,2.68
2023-02-07T13:49:31.696Z,2.78
2023-02-07T13:51:02.512Z,2.69
2023-02-07T13:52:43.787Z,2.75
2023-02-07T13:54:24.019Z,2.56
2023-02-07T13:55:38.777Z,2.59
2023-02-07T13:57:15.483Z,2.50
2023-02-07T13:58:54.737Z,2.68
2023-02-07T14:00:16.923Z,2.41
2023-02-07T14:01:26.156Z,2.32
2023-02-07T14:02:28.774Z,2.18
2023-02-07T14:03:35.986Z,2.23
2023-02-07T14:04:56.269Z,2.40
2023-02-07T14:06:44.586Z,2.21
2023-02-07T14:08:13.889Z,2.06
2023-02-07T14:09:22.694Z,2.29
2023-02-07T14:10:43.184Z,2.23
2023-02-07T14:11:47.572Z,2.17
2023-02-07T14:12:49.719Z,2.08
2023-02-07T14:14:04.672Z,2.10
2023-02-07T14:15:35.072Z,2.15
2023-02-07T14:16:59.379Z,2.04
2023-02-07T14:18:03.358Z,2.02
2023-02-07T14:19:11.355Z,2.12
2023-02-07T14:20:35.929Z,2.07
2023-02-07T14:21:40.501Z,2.13
2023-02-07T14:22:42.784Z,2.14
2023-02-07T14:24:17.032Z,2.09
2023-02-07T14:25:24.509Z,2.14
2023-02-07T14:26:39.285Z,1.88
2023-02-07T14:27:50.897Z,1.95
2023-02-07T14:28:53.344Z,1.92
2023-02-07T14:30:13.162Z,1.92
2023-02-07T14:31:24.124Z,1.84
2023-02-07T14:32:28.402Z,1.92
2023-02-07T14:33:34.062Z,1.81
2023-02-07T14:35:04.630Z,1.74
2023-02-07T14:36:20.730Z,1.66
2023-02-07T14:37:53.839Z,1.69
2023-02-07T14:39:03.261Z,1.72
2023-02-07T14:40:31.780Z,1.59
2023-02-07T14:41:37.657Z,1.65
2023-02-07T14:42:40.572Z,1.60
2023-02-07T14:43:42.866Z,1.63
2023-02-07T14:44:48.247Z,1.60
2023-02-07T14:45:51.301Z,1.62
2023-02-07T14:46:56.587Z,1.51
2023-02-07T14:47:59.516Z,1.52
2023-02-07T14:49:04.754Z,1.56
2023-02-07T14:50:07.833Z,1.51
2023-02-07T14:51:22.130Z,1.52
2023-02-07T14:52:27.231Z,1.55
2023-02-07T14:53:31.969Z,1.56
2023-02-07T14:54:55.617Z,1.54
2023-02-07T14:56:04.685Z,1.49